createdAt,value
2023-02-14T00:01:28.135Z,-10.99
2023-02-14T00:04:01.376Z,-11.00
2023-02-14T00:06:30.267Z,-11.01
2023-02-14T00:08:58.327Z,-11.03
2023-02-14T00:11:26.598Z,-11.06
2023-02-14T00:14:13.068Z,-11.05
2023-02-14T00:16:41.294Z,-11.08
2023-02-14T00:19:09.573Z,-11.05
2023-02-14T00:21:38.526Z,-11.05
2023-02-14T00:24:08.860Z,-11.06
2023-02-14T00:26:39.027Z,-11.09
2023-02-14T00:29:10.051Z,-11.08
2023-02-14T00:31:38.073Z,-11.01
2023-02-14T00:34:06.455Z,-10.96
2023-02-14T00:36:35.243Z,-10.92
2023-02-14T00:39:07.118Z,-10.88
2023-02-14T00:41:35.010Z,-10.82
2023-02-14T00:44:03.195Z,-10.78
2023-02-14T00:46:31.126Z,-10.77
2023-02-14T00:48:59.159Z,-10.70
2023-02-14T00:51:27.293Z,-10.73
2023-02-14T00:53:55.650Z,-10.71
2023-02-14T00:56:23.715Z,-10.72
2023-02-14T00:58:51.898Z,-10.76
2023-02-14T01:01:20.054Z,-10.78
2023-02-14T01:03:48.235Z,-10.74
2023-02-14T01:06:16.233Z,-10.71
2023-02-14T01:08:44.393Z,-10.69
2023-02-14T01:11:18.000Z,-10.68
2023-02-14T01:13:47.972Z,-10.67
2023-02-14T01:16:18.094Z,-10.69
2023-02-14T01:18:46.254Z,-10.77
2023-02-14T01:21:20.290Z,-10.85
2023-02-14T01:23:51.325Z,-10.93
2023-02-14T01:26:20.223Z,-11.02
2023-02-14T01:28:48.099Z,-11.13
2023-02-14T01:31:22.122Z,-11.21
2023-02-14T01:33:50.454Z,-11.33
2023-02-14T01:36:25.429Z,-11.38
2023-02-14T01:38:54.818Z,-11.45
2023-02-14T01:41:24.411Z,-11.51
2023-02-14T01:44:02.986Z,-11.59
2023-02-14T01:46:33.448Z,-11.67
2023-02-14T01:49:09.752Z,-11.76
2023-02-14T01:51:39.202Z,-11.82
2023-02-14T01:54:07.446Z,-11.86
2023-02-14T01:56:41.582Z,-11.89
2023-02-14T01:59:11.218Z,-11.84
2023-02-14T02:01:39.401Z,-11.76
2023-02-14T02:04:16.656Z,-11.65
2023-02-14T02:06:46.792Z,-11.56
2023-02-14T02:09:17.701Z,-11.53
2023-02-14T02:11:46.084Z,-11.51
2023-02-14T02:14:19.099Z,-11.48
2023-02-14T02:17:05.812Z,-11.40
2023-02-14T02:19:49.329Z,-11.33
2023-02-14T02:22:29.031Z,-11.24
2023-02-14T02:25:17.208Z,-11.12
2023-02-14T02:28:14.470Z,-11.00
2023-02-14T02:31:06.846Z,-10.81
2023-02-14T02:33:43.512Z,-10.68
2023-02-14T02:36:29.919Z,-10.62
2023-02-14T02:39:09.442Z,-10.58
2023-02-14T02:41:56.373Z,-10.55
2023-02-14T02:44:58.586Z,-10.51
2023-02-14T02:47:33.992Z,-10.56
2023-02-14T02:50:42.017Z,-10.36
2023-02-14T02:53:35.409Z,-10.21
2023-02-14T02:56:31.130Z,-10.07
2023-02-14T02:59:19.406Z,-9.84
2023-02-14T03:02:08.089Z,-9.68
2023-02-14T03:04:53.930Z,-9.71
2023-02-14T03:07:37.247Z,-9.67
2023-02-14T03:10:06.533Z,-9.68
2023-02-14T03:12:34.193Z,-9.74
2023-02-14T03:15:30.449Z,-9.75
2023-02-14T03:18:02.886Z,-9.77
2023-02-14T03:20:45.874Z,-9.82
2023-02-14T03:23:13.625Z,-9.88
2023-02-14T03:26:13.968Z,-9.99
2023-02-14T03:29:02.774Z,-10.04
2023-02-14T03:31:37.522Z,-9.96
2023-02-14T03:34:17.747Z,-9.67
2023-02-14T03:37:04.007Z,-9.34
2023-02-14T03:40:10.307Z,-8.98
2023-02-14T03:42:46.143Z,-8.63
2023-02-14T03:45:19.042Z,-8.54
2023-02-14T03:47:47.444Z,-8.53
2023-02-14T03:50:17.804Z,-8.63
2023-02-14T03:52:46.489Z,-8.65
2023-02-14T03:55:17.101Z,-8.71
2023-02-14T03:58:13.487Z,-8.67
2023-02-14T04:00:41.640Z,-8.61
2023-02-14T04:03:13.440Z,-8.59
2023-02-14T04:05:43.907Z,-8.51
2023-02-14T04:08:12.794Z,-8.30
2023-02-14T04:10:42.312Z,-8.04
2023-02-14T04:13:10.723Z,-7.74
2023-02-14T04:15:38.468Z,-7.33
2023-02-14T04:18:24.714Z,-6.93
2023-02-14T04:20:52.494Z,-6.68
2023-02-14T04:23:21.079Z,-6.55
2023-02-14T04:25:48.902Z,-6.38
2023-02-14T04:28:16.883Z,-6.17
2023-02-14T04:30:44.953Z,-5.95
2023-02-14T04:33:12.970Z,-5.72
2023-02-14T04:35:41.121Z,-5.55
2023-02-14T04:38:08.965Z,-5.32
2023-02-14T04:40:36.703Z,-5.23
2023-02-14T04:43:05.353Z,-5.20
2023-02-14T04:45:33.381Z,-5.20
2023-02-14T04:48:01.364Z,-5.16
2023-02-14T04:50:29.155Z,-5.36
2023-02-14T04:52:57.230Z,-5.47
2023-02-14T04:55:25.346Z,-5.69
2023-02-14T04:57:53.464Z,-5.95
2023-02-14T05:00:22.229Z,-6.13
2023-02-14T05:02:50.080Z,-6.22
2023-02-14T05:05:18.247Z,-6.14
2023-02-14T05:07:48.229Z,-5.88
2023-02-14T05:10:16.286Z,-5.60
2023-02-14T05:12:44.761Z,-5.42
2023-02-14T05:15:12.596Z,-5.50
2023-02-14T05:17:40.672Z,-5.66
2023-02-14T05:20:09.368Z,-5.74
2023-02-14T05:22:37.114Z,-5.80
2023-02-14T05:25:05.101Z,-5.74
2023-02-14T05:27:33.141Z,-5.46
2023-02-14T05:30:01.061Z,-5.27
2023-02-14T05:32:29.081Z,-5.33
2023-02-14T05:34:57.091Z,-5.49
2023-02-14T05:37:24.948Z,-5.83
2023-02-14T05:39:52.946Z,-6.15
2023-02-14T05:42:21.166Z,-6.36
2023-02-14T05:44:49.237Z,-6.62
2023-02-14T05:47:17.259Z,-6.86
2023-02-14T05:49:45.298Z,-6.99
2023-02-14T05:52:13.106Z,-7.02
2023-02-14T05:54:41.138Z,-7.09
2023-02-14T05:57:09.085Z,-7.11
2023-02-14T05:59:37.463Z,-7.25
2023-02-14T06:02:05.331Z,-7.36
2023-02-14T06:04:33.754Z,-7.42
2023-02-14T06:07:01.515Z,-7.58
2023-02-14T06:09:29.335Z,-7.71
2023-02-14T06:11:57.747Z,-7.68
2023-02-14T06:14:25.629Z,-7.57
2023-02-14T06:16:54.352Z,-7.44
2023-02-14T06:19:22.593Z,-7.30
2023-02-14T06:21:50.436Z,-6.97
2023-02-14T06:24:18.867Z,-6.71
2023-02-14T06:26:48.528Z,-6.60
2023-02-14T06:29:18.169Z,-6.49
2023-02-14T06:31:46.093Z,-6.52
2023-02-14T06:34:15.920Z,-6.56
2023-02-14T06:36:44.536Z,-6.69
2023-02-14T06:39:13.009Z,-6.79
2023-02-14T06:41:41.169Z,-6.88
2023-02-14T06:44:11.085Z,-7.03
2023-02-14T06:46:39.168Z,-7.05
2023-02-14T06:49:06.899Z,-7.02
2023-02-14T06:51:34.743Z,-6.99
2023-02-14T06:54:03.165Z,-6.95
2023-02-14T06:56:31.178Z,-6.83
2023-02-14T06:58:59.502Z,-6.68
2023-02-14T07:01:27.848Z,-6.54
2023-02-14T07:03:56.910Z,-6.39
2023-02-14T07:06:24.663Z,-6.22
2023-02-14T07:08:52.348Z,-6.07
2023-02-14T07:11:20.738Z,-5.84
2023-02-14T07:13:49.621Z,-5.83
2023-02-14T07:16:17.754Z,-5.82
2023-02-14T07:18:46.160Z,-5.93
2023-02-14T07:21:13.846Z,-6.01
2023-02-14T07:23:41.830Z,-6.01
2023-02-14T07:26:10.178Z,-5.98
2023-02-14T07:28:38.323Z,-5.89
2023-02-14T07:31:06.857Z,-5.70
2023-02-14T07:33:35.020Z,-5.55
2023-02-14T07:36:07.879Z,-5.55
2023-02-14T07:38:35.546Z,-5.53
2023-02-14T07:41:03.359Z,-5.55
2023-02-14T07:43:31.343Z,-5.52
2023-02-14T07:46:00.995Z,-5.39
2023-02-14T07:48:31.058Z,-5.27
2023-02-14T07:51:00.591Z,-5.22
2023-02-14T07:53:28.842Z,-5.18
2023-02-14T07:55:57.257Z,-5.13
2023-02-14T07:58:25.021Z,-5.02
2023-02-14T08:00:53.075Z,-4.93
2023-02-14T08:03:20.883Z,-4.97
2023-02-14T08:05:57.530Z,-5.19
2023-02-14T08:08:30.183Z,-5.40
2023-02-14T08:10:58.545Z,-5.68
2023-02-14T08:13:26.571Z,-5.93
2023-02-14T08:16:06.897Z,-6.18
2023-02-14T08:18:42.054Z,-6.47
2023-02-14T08:21:11.318Z,-6.68
2023-02-14T08:23:39.627Z,-6.88
2023-02-14T08:26:08.059Z,-7.05
2023-02-14T08:28:36.074Z,-7.13
2023-02-14T08:31:04.556Z,-7.23
2023-02-14T08:33:33.307Z,-7.34
2023-02-14T08:36:01.205Z,-7.46
2023-02-14T08:38:30.069Z,-7.57
2023-02-14T08:41:04.552Z,-7.53
2023-02-14T08:43:34.432Z,-7.63
2023-02-14T08:46:03.089Z,-7.68
2023-02-14T08:48:31.627Z,-7.67
2023-02-14T08:50:59.719Z,-7.64
2023-02-14T08:53:27.796Z,-7.65
2023-02-14T08:55:55.628Z,-7.67
2023-02-14T08:58:23.362Z,-7.62
2023-02-14T09:00:51.559Z,-7.53
2023-02-14T09:03:19.900Z,-7.51
2023-02-14T09:05:47.885Z,-7.51
2023-02-14T09:08:16.124Z,-7.48
2023-02-14T09:10:44.137Z,-7.47
2023-02-14T09:13:11.989Z,-7.44
2023-02-14T09:15:40.688Z,-7.47
2023-02-14T09:18:08.789Z,-7.50
2023-02-14T09:20:37.148Z,-7.63
2023-02-14T09:23:05.442Z,-7.77
2023-02-14T09:25:33.699Z,-7.90
2023-02-14T09:28:01.790Z,-8.03
2023-02-14T09:30:29.684Z,-8.20
2023-02-14T09:32:57.620Z,-8.33
2023-02-14T09:35:25.385Z,-8.45
2023-02-14T09:37:53.254Z,-8.55
2023-02-14T09:40:21.352Z,-8.61
2023-02-14T09:43:03.315Z,-8.68
2023-02-14T09:45:31.878Z,-8.73
2023-02-14T09:48:15.878Z,-8.77
2023-02-14T09:50:49.097Z,-8.77
2023-02-14T09:53:22.204Z,-8.79
2023-02-14T09:56:15.488Z,-8.83
2023-02-14T09:58:59.378Z,-8.87
2023-02-14T10:01:32.617Z,-8.93
2023-02-14T10:04:19.348Z,-9.01
2023-02-14T10:07:12.593Z,-9.08
2023-02-14T10:09:43.576Z,-9.15
2023-02-14T10:12:19.924Z,-9.26
2023-02-14T10:14:48.027Z,-9.30
2023-02-14T10:17:18.879Z,-9.32
2023-02-14T10:19:57.019Z,-9.37
2023-02-14T10:22:46.917Z,-9.39
2023-02-14T10:25:25.272Z,-9.38
2023-02-14T10:27:53.790Z,-9.41
2023-02-14T10:30:23.097Z,-9.47
2023-02-14T10:33:02.026Z,-9.55
2023-02-14T10:35:40.984Z,-9.62
2023-02-14T10:38:37.202Z,-9.71
2023-02-14T10:41:25.180Z,-9.77
2023-02-14T10:44:09.528Z,-9.84
2023-02-14T10:47:01.374Z,-9.97
2023-02-14T10:49:45.143Z,-10.05
2023-02-14T10:52:22.454Z,-10.12
2023-02-14T10:55:00.474Z,-10.18
2023-02-14T10:57:41.688Z,-10.23
2023-02-14T11:00:31.640Z,-10.29
2023-02-14T11:03:00.961Z,-10.35
2023-02-14T11:05:38.122Z,-10.37
2023-02-14T11:08:23.713Z,-10.40
2023-02-14T11:10:51.693Z,-10.42
2023-02-14T11:13:35.784Z,-10.44
2023-02-14T11:16:09.268Z,-10.48
2023-02-14T11:18:41.334Z,-10.50
2023-02-14T11:21:11.358Z,-10.51
2023-02-14T11:23:44.977Z,-10.52
2023-02-14T11:26:35.091Z,-10.53
2023-02-14T11:29:10.800Z,-10.59
2023-02-14T11:31:39.623Z,-10.61
2023-02-14T11:34:26.290Z,-10.61
2023-02-14T11:36:56.163Z,-10.61
2023-02-14T11:39:28.713Z,-10.62
2023-02-14T11:41:57.668Z,-10.64
2023-02-14T11:44:30.360Z,-10.71
2023-02-14T11:46:58.356Z,-10.75
2023-02-14T11:49:32.140Z,-10.86
2023-02-14T11:52:10.407Z,-10.91
2023-02-14T11:54:41.037Z,-10.96
2023-02-14T11:57:22.830Z,-10.97
2023-02-14T11:59:54.664Z,-11.03
2023-02-14T12:02:38.872Z,-11.04
2023-02-14T12:05:29.314Z,-11.07
2023-02-14T12:08:07.222Z,-11.12
2023-02-14T12:10:40.630Z,-11.15
2023-02-14T12:13:09.512Z,-11.21
2023-02-14T12:15:47.916Z,-11.25
2023-02-14T12:18:47.863Z,-11.31
2023-02-14T12:21:23.666Z,-11.38
2023-02-14T12:24:25.603Z,-11.48
2023-02-14T12:27:01.813Z,-11.54
2023-02-14T12:29:42.872Z,-11.63
2023-02-14T12:32:20.725Z,-11.68
2023-02-14T12:34:50.128Z,-11.71
2023-02-14T12:37:24.764Z,-11.76
2023-02-14T12:40:02.509Z,-11.82
2023-02-14T12:42:47.378Z,-11.88
2023-02-14T12:45:25.978Z,-11.94
2023-02-14T12:48:16.322Z,-12.01
2023-02-14T12:50:48.921Z,-12.06
2023-02-14T12:53:38.860Z,-12.13
2023-02-14T12:56:34.854Z,-12.24
2023-02-14T12:59:28.281Z,-12.32
2023-02-14T13:02:15.722Z,-12.41
2023-02-14T13:05:02.691Z,-12.46
2023-02-14T13:08:07.492Z,-12.49
2023-02-14T13:10:47.865Z,-12.52
2023-02-14T13:13:37.143Z,-12.54
2023-02-14T13:16:22.623Z,-12.53
2023-02-14T13:18:57.125Z,-12.52
2023-02-14T13:21:32.181Z,-12.52
2023-02-14T13:24:29.418Z,-12.53
2023-02-14T13:27:00.311Z,-12.59
2023-02-14T13:29:33.996Z,-12.64
2023-02-14T13:32:03.528Z,-12.70
2023-02-14T13:34:37.770Z,-12.73
2023-02-14T13:37:08.856Z,-12.76
2023-02-14T13:39:43.416Z,-12.77
2023-02-14T13:42:13.421Z,-12.77
2023-02-14T13:44:50.812Z,-12.77
2023-02-14T13:47:27.208Z,-12.75
2023-02-14T13:50:04.308Z,-12.72
2023-02-14T13:52:47.105Z,-12.72
2023-02-14T13:55:23.815Z,-12.72
2023-02-14T13:58:24.764Z,-12.73
2023-02-14T14:00:53.580Z,-12.79
2023-02-14T14:03:31.486Z,-12.85
2023-02-14T14:06:12.316Z,-12.91
2023-02-14T14:08:44.229Z,-13.01
2023-02-14T14:11:22.354Z,-13.11
2023-02-14T14:14:02.404Z,-13.21
2023-02-14T14:16:35.534Z,-13.32
2023-02-14T14:19:21.387Z,-13.40
2023-02-14T14:22:09.974Z,-13.47
2023-02-14T14:24:38.444Z,-13.54
2023-02-14T14:27:15.996Z,-13.64
2023-02-14T14:29:54.689Z,-13.70
2023-02-14T14:32:30.788Z,-13.75
2023-02-14T14:35:23.161Z,-13.83
2023-02-14T14:37:53.709Z,-13.92
2023-02-14T14:40:30.482Z,-13.90
2023-02-14T14:43:21.986Z,-13.90
2023-02-14T14:45:50.169Z,-13.96
2023-02-14T14:48:22.832Z,-13.96
2023-02-14T14:50:51.287Z,-13.96
2023-02-14T14:53:46.483Z,-13.93
2023-02-14T14:56:24.832Z,-13.95
2023-02-14T14:58:52.985Z,-13.97
2023-02-14T15:01:38.110Z,-13.92
2023-02-14T15:04:16.429Z,-13.87
2023-02-14T15:06:45.416Z,-13.85
2023-02-14T15:09:23.469Z,-13.82
2023-02-14T15:12:11.048Z,-13.81
2023-02-14T15:14:42.012Z,-13.81
2023-02-14T15:17:25.905Z,-13.86
2023-02-14T15:19:56.224Z,-13.87
2023-02-14T15:22:37.398Z,-13.82
2023-02-14T15:25:14.621Z,-13.85
2023-02-14T15:27:42.671Z,-13.80
2023-02-14T15:30:39.549Z,-13.77
2023-02-14T15:33:07.529Z,-13.79
2023-02-14T15:35:37.588Z,-13.79
2023-02-14T15:38:06.413Z,-13.78
2023-02-14T15:40:35.238Z,-13.80
2023-02-14T15:43:33.371Z,-13.85
2023-02-14T15:46:37.610Z,-13.92
2023-02-14T15:49:12.745Z,-14.03
2023-02-14T15:51:41.302Z,-14.09
2023-02-14T15:54:47.867Z,-14.15
2023-02-14T15:57:26.914Z,-14.22
2023-02-14T15:59:55.358Z,-14.30
2023-02-14T16:02:42.870Z,-14.33
2023-02-14T16:05:23.639Z,-14.32
2023-02-14T16:08:05.619Z,-14.33
2023-02-14T16:10:34.624Z,-14.37
2023-02-14T16:13:14.885Z,-14.38
2023-02-14T16:16:00.798Z,-14.39
2023-02-14T16:18:39.792Z,-14.40
2023-02-14T16:21:28.042Z,-14.40
2023-02-14T16:24:14.175Z,-14.37
2023-02-14T16:26:43.684Z,-14.37
2023-02-14T16:29:13.646Z,-14.37
2023-02-14T16:34:40.859Z,-14.39
2023-02-14T16:37:10.369Z,-14.41
2023-02-14T16:39:38.326Z,-14.40
2023-02-14T16:42:06.401Z,-14.41
2023-02-14T16:44:34.369Z,-14.44
2023-02-14T16:47:02.728Z,-14.52
2023-02-14T16:49:30.488Z,-14.61
2023-02-14T16:51:58.256Z,-14.68
2023-02-14T16:54:26.299Z,-14.76
2023-02-14T16:57:02.785Z,-14.81
2023-02-14T16:59:30.953Z,-14.89
2023-02-14T17:01:59.365Z,-14.95
2023-02-14T17:04:27.481Z,-15.04
2023-02-14T17:06:57.823Z,-15.16
2023-02-14T17:09:32.638Z,-15.23
2023-02-14T17:12:02.358Z,-15.29
2023-02-14T17:14:33.018Z,-15.33
2023-02-14T17:17:00.863Z,-15.33
2023-02-14T17:19:28.824Z,-15.35
2023-02-14T17:22:00.654Z,-15.31
2023-02-14T17:24:28.465Z,-15.29
2023-02-14T17:26:56.345Z,-15.29
2023-02-14T17:29:24.128Z,-15.28
2023-02-14T17:31:52.243Z,-15.20
2023-02-14T17:34:20.138Z,-15.03
2023-02-14T17:36:48.577Z,-14.83
2023-02-14T17:39:18.920Z,-14.60
2023-02-14T17:41:47.234Z,-14.36
2023-02-14T17:44:16.176Z,-14.17
2023-02-14T17:46:44.430Z,-14.05
2023-02-14T17:49:12.762Z,-13.93
2023-02-14T17:51:40.556Z,-13.78
2023-02-14T17:54:08.565Z,-13.76
2023-02-14T17:56:36.328Z,-13.84
2023-02-14T17:59:04.469Z,-13.95
2023-02-14T18:01:34.961Z,-14.06
2023-02-14T18:04:03.557Z,-14.15
2023-02-14T18:06:33.013Z,-14.16
2023-02-14T18:09:02.055Z,-14.07
2023-02-14T18:11:30.962Z,-13.96
2023-02-14T18:14:00.158Z,-13.83
2023-02-14T18:16:28.586Z,-13.72
2023-02-14T18:18:56.739Z,-13.62
2023-02-14T18:21:24.950Z,-13.54
2023-02-14T18:23:53.409Z,-13.50
2023-02-14T18:26:21.161Z,-13.65
2023-02-14T18:28:51.649Z,-13.79
2023-02-14T18:31:19.623Z,-13.95
2023-02-14T18:33:48.398Z,-14.05
2023-02-14T18:36:18.706Z,-14.06
2023-02-14T18:38:48.341Z,-14.13
2023-02-14T18:41:17.561Z,-14.30
2023-02-14T18:43:45.752Z,-14.56
2023-02-14T18:46:16.233Z,-14.78
2023-02-14T18:48:48.200Z,-14.96
2023-02-14T18:51:24.673Z,-15.02
2023-02-14T18:53:52.642Z,-15.05
2023-02-14T18:56:31.648Z,-15.10
2023-02-14T18:59:01.830Z,-15.17
2023-02-14T19:01:31.596Z,-15.21
2023-02-14T19:04:00.497Z,-15.14
2023-02-14T19:06:30.012Z,-15.02
2023-02-14T19:08:58.637Z,-14.85
2023-02-14T19:11:28.561Z,-14.74
2023-02-14T19:13:57.340Z,-14.66
2023-02-14T19:16:33.748Z,-14.54
2023-02-14T19:19:03.007Z,-14.38
2023-02-14T19:21:32.941Z,-14.23
2023-02-14T19:24:01.615Z,-13.98
2023-02-14T19:26:33.146Z,-13.74
2023-02-14T19:29:02.667Z,-13.58
2023-02-14T19:31:31.008Z,-13.43
2023-02-14T19:33:59.089Z,-13.22
2023-02-14T19:36:27.006Z,-13.05
2023-02-14T19:38:56.444Z,-12.89
2023-02-14T19:41:30.572Z,-12.90
2023-02-14T19:43:59.489Z,-12.97
2023-02-14T19:46:28.339Z,-12.90
2023-02-14T19:48:57.678Z,-12.90
2023-02-14T19:51:30.219Z,-12.90
2023-02-14T19:53:59.668Z,-12.94
2023-02-14T19:56:29.453Z,-12.96
2023-02-14T19:58:57.715Z,-13.07
2023-02-14T20:01:27.772Z,-13.18
2023-02-14T20:03:55.837Z,-13.33
2023-02-14T20:06:24.267Z,-13.31
2023-02-14T20:08:52.335Z,-13.35
2023-02-14T20:11:30.964Z,-13.42
2023-02-14T20:13:59.719Z,-13.35
2023-02-14T20:16:28.538Z,-13.28
2023-02-14T20:18:56.503Z,-13.33
2023-02-14T20:21:28.868Z,-13.38
2023-02-14T20:24:01.143Z,-13.33
2023-02-14T20:26:29.887Z,-13.29
2023-02-14T20:29:04.066Z,-13.21
2023-02-14T20:31:32.993Z,-13.15
2023-02-14T20:34:00.991Z,-13.03
2023-02-14T20:36:29.062Z,-12.88
2023-02-14T20:39:01.142Z,-12.79
2023-02-14T20:41:29.437Z,-12.65
2023-02-14T20:44:03.371Z,-12.55
2023-02-14T20:46:32.161Z,-12.54
2023-02-14T20:49:00.413Z,-12.53
2023-02-14T20:51:28.453Z,-12.51
2023-02-14T20:53:56.322Z,-12.46
2023-02-14T20:56:24.334Z,-12.35
2023-02-14T20:58:52.597Z,-12.16
2023-02-14T21:01:24.457Z,-12.03
2023-02-14T21:03:53.470Z,-11.91
2023-02-14T21:06:23.603Z,-11.79
2023-02-14T21:08:51.490Z,-11.67
2023-02-14T21:11:20.651Z,-11.58
2023-02-14T21:13:48.467Z,-11.59
2023-02-14T21:16:17.878Z,-11.59
2023-02-14T21:18:48.971Z,-11.55
2023-02-14T21:21:20.931Z,-11.49
2023-02-14T21:23:52.362Z,-11.45
2023-02-14T21:26:20.706Z,-11.42
2023-02-14T21:28:48.837Z,-11.44
2023-02-14T21:31:18.530Z,-11.40
2023-02-14T21:33:46.374Z,-11.34
2023-02-14T21:36:16.276Z,-11.30
2023-02-14T21:38:44.334Z,-11.27
2023-02-14T21:41:14.139Z,-11.23
2023-02-14T21:43:43.988Z,-11.20
2023-02-14T21:46:27.780Z,-11.12
2023-02-14T21:49:14.298Z,-11.09
2023-02-14T21:51:42.465Z,-11.08
2023-02-14T21:54:10.642Z,-11.07
2023-02-14T21:56:39.198Z,-11.11
2023-02-14T21:59:07.058Z,-11.10
2023-02-14T22:01:35.933Z,-11.10
2023-02-14T22:04:08.116Z,-11.11
2023-02-14T22:06:38.050Z,-11.12
2023-02-14T22:09:05.932Z,-11.11
2023-02-14T22:11:34.231Z,-11.08
2023-02-14T22:14:02.003Z,-11.03
2023-02-14T22:16:30.204Z,-11.04
2023-02-14T22:18:58.259Z,-11.00
2023-02-14T22:21:26.989Z,-11.04
2023-02-14T22:23:56.000Z,-11.04
2023-02-14T22:26:28.882Z,-11.02
2023-02-14T22:28:59.753Z,-10.97
2023-02-14T22:31:29.754Z,-10.92
2023-02-14T22:33:57.751Z,-10.86
2023-02-14T22:36:25.732Z,-10.77
2023-02-14T22:38:53.640Z,-10.75
2023-02-14T22:41:23.096Z,-10.76
2023-02-14T22:43:51.556Z,-10.70
2023-02-14T22:46:21.592Z,-10.66
2023-02-14T22:48:49.830Z,-10.56
2023-02-14T22:51:27.991Z,-10.51
2023-02-14T22:54:00.995Z,-10.46
2023-02-14T22:56:36.289Z,-10.52
2023-02-14T22:59:06.684Z,-10.49
2023-02-14T23:01:35.122Z,-10.58
2023-02-14T23:04:03.571Z,-10.68
2023-02-14T23:06:33.107Z,-10.66
2023-02-14T23:09:01.568Z,-10.76
2023-02-14T23:11:30.628Z,-10.80
2023-02-14T23:14:17.472Z,-10.83
2023-02-14T23:17:03.944Z,-10.83
2023-02-14T23:19:52.404Z,-10.93
2023-02-14T23:22:28.379Z,-11.06
2023-02-14T23:25:00.585Z,-11.12
2023-02-14T23:27:34.129Z,-11.20
2023-02-14T23:30:02.575Z,-11.24
2023-02-14T23:32:30.437Z,-11.21
2023-02-14T23:34:58.771Z,-11.19
2023-02-14T23:37:26.590Z,-11.19
2023-02-14T23:39:54.362Z,-11.19
2023-02-14T23:42:22.541Z,-11.28
2023-02-14T23:44:50.328Z,-11.36
2023-02-14T23:47:18.696Z,-11.45
2023-02-14T23:49:46.613Z,-11.56
2023-02-14T23:52:15.106Z,-11.61
2023-02-14T23:54:42.937Z,-11.67
2023-02-14T23:57:10.819Z,-11.72
2023-02-14T23:59:38.593Z,-11.69
